Time;durP1;ratioP1;P1;durP2;ratioP2;P2;SDS_P1;SDS_P2;PMS_P1;PMS_P2;Temp;Humidity;BMP_temperature;BMP_pressure;BME280_temperature;BME280_humidity;BME280_pressure;Samples;Min_cycle;Max_cycle;Signal;HPM_P1;HPM_P2
2022/03/17 00:00:37;;;;;;;29.70;16.85;;;6.90;47.70;;;;;;5084022;28;20091;-75
2022/03/17 00:03:05;;;;;;;;;;;6.90;47.70;;;;;;5073757;28;20037;-82
2022/03/17 00:05:40;;;;;;;29.00;16.60;;;6.80;46.50;;;;;;5071342;28;19974;-81
2022/03/17 00:08:12;;;;;;;24.48;14.40;;;6.80;47.30;;;;;;5071643;28;20040;-81
2022/03/17 00:10:38;;;;;;;30.60;16.48;;;6.70;47.10;;;;;;5090009;28;20366;-81
2022/03/17 00:13:04;;;;;;;31.42;16.65;;;6.70;47.80;;;;;;5088064;28;20112;-81
2022/03/17 00:15:30;;;;;;;28.73;16.65;;;6.60;47.10;;;;;;5071210;28;20040;-74
2022/03/17 00:17:58;;;;;;;26.25;14.52;;;6.60;47.80;;;;;;5073121;28;20111;-81
2022/03/17 00:20:33;;;;;;;26.85;15.57;;;6.50;47.80;;;;;;5070760;28;20064;-81
2022/03/17 00:23:02;;;;;;;28.92;16.15;;;6.50;48.10;;;;;;5063401;28;20025;-74
2022/03/17 00:25:33;;;;;;;31.65;17.00;;;6.50;48.20;;;;;;5073322;28;20032;-81
2022/03/17 00:28:02;;;;;;;25.35;15.05;;;6.40;48.20;;;;;;5060998;28;20139;-74
2022/03/17 00:30:31;;;;;;;30.25;16.83;;;6.40;48.30;;;;;;5070513;28;20052;-74
2022/03/17 00:33:06;;;;;;;31.63;17.40;;;6.30;48.40;;;;;;5074360;28;20060;-80
2022/03/17 00:38:19;;;;;;;50.78;25.48;;;6.20;48.60;;;;;;5093005;28;20050;-74
2022/03/17 00:40:49;;;;;;;35.88;19.38;;;6.20;48.60;;;;;;5090684;28;20036;-81
2022/03/17 00:43:16;;;;;;;29.77;16.02;;;6.10;48.90;;;;;;5090264;28;20445;-81
2022/03/17 00:45:45;;;;;;;29.48;14.45;;;6.00;48.80;;;;;;5092012;28;20074;-74
2022/03/17 00:48:11;;;;;;;31.63;14.95;;;6.00;48.80;;;;;;5091376;28;20058;-75
2022/03/17 00:51:09;;;;;;;25.73;13.98;;;5.90;48.50;;;;;;5073868;28;20123;-74
2022/03/17 00:54:03;;;;;;;26.92;14.35;;;5.90;49.00;;;;;;5066099;28;20029;-80
2022/03/17 00:56:29;;;;;;;37.00;18.45;;;5.90;49.00;;;;;;5075420;28;20127;-81
2022/03/17 00:58:55;;;;;;;34.75;17.77;;;5.80;49.00;;;;;;5074186;28;20047;-75
2022/03/17 01:01:27;;;;;;;42.55;19.30;;;5.80;49.10;;;;;;5079019;28;20032;-74
2022/03/17 01:03:53;;;;;;;36.47;18.15;;;5.80;49.20;;;;;;5094846;28;20036;-74
2022/03/17 01:06:24;;;;;;;40.95;20.58;;;5.70;49.30;;;;;;5094430;28;20028;-81
2022/03/17 01:08:51;;;;;;;50.70;26.40;;;5.70;49.40;;;;;;5078005;28;20126;-80
2022/03/17 01:11:27;;;;;;;59.03;29.05;;;5.80;49.30;;;;;;5094032;28;20136;-80
2022/03/17 01:14:07;;;;;;;54.72;27.58;;;5.80;49.30;;;;;;5093864;28;20113;-75
2022/03/17 01:16:38;;;;;;;58.17;28.35;;;5.80;49.20;;;;;;5094248;28;20036;-81
2022/03/17 01:19:04;;;;;;;56.60;27.88;;;5.90;49.30;;;;;;5077454;28;20048;-80
2022/03/17 01:21:32;;;;;;;51.55;27.02;;;6.00;49.30;;;;;;5093105;28;20032;-74
2022/03/17 01:24:01;;;;;;;51.10;26.13;;;6.00;49.20;;;;;;5094929;28;20554;-81
2022/03/17 01:26:28;;;;;;;58.30;26.02;;;6.00;49.10;;;;;;5094160;28;20039;-81
2022/03/17 01:28:54;;;;;;;60.00;28.52;;;6.00;48.70;;;;;;5094373;28;20044;-80
2022/03/17 01:31:24;;;;;;;67.10;29.70;;;6.10;49.40;;;;;;5065564;28;20465;-74
2022/03/17 01:33:51;;;;;;;130.52;49.72;;;6.10;49.30;;;;;;5085387;28;20040;-81
2022/03/17 01:36:17;;;;;;;72.97;31.02;;;6.10;49.40;;;;;;5093739;28;20039;-80
2022/03/17 01:38:45;;;;;;;45.08;23.13;;;6.10;49.00;;;;;;5094283;28;20043;-80
2022/03/17 01:41:13;;;;;;;40.03;19.90;;;6.20;49.50;;;;;;5093061;28;20089;-74
2022/03/17 01:43:50;;;;;;;;;;;;;;;;;;;;;
2022/03/17 01:46:27;;;;;;;35.38;19.23;;;6.30;49.30;;;;;;5093796;28;20411;-74
2022/03/17 01:48:54;;;;;;;32.90;17.42;;;6.30;49.70;;;;;;5093859;28;20098;-74
2022/03/17 01:51:20;;;;;;;30.33;17.40;;;6.40;49.20;;;;;;5076169;28;20139;-80
2022/03/17 01:53:50;;;;;;;34.03;18.25;;;6.40;49.90;;;;;;5073829;28;20112;-80
2022/03/17 01:56:39;;;;;;;39.60;19.70;;;6.40;49.50;;;;;;5056147;28;20051;-75
2022/03/17 01:59:08;;;;;;;50.13;22.58;;;6.40;50.10;;;;;;5088295;28;20092;-74
2022/03/17 02:01:38;;;;;;;43.30;22.60;;;6.40;49.90;;;;;;5075651;28;20048;-74
2022/03/17 02:04:08;;;;;;;40.90;20.10;;;6.40;50.10;;;;;;5092870;28;20396;-74
2022/03/17 02:06:42;;;;;;;37.38;17.67;;;6.40;50.30;;;;;;5094525;28;20085;-74
2022/03/17 02:09:08;;;;;;;30.60;17.15;;;6.50;50.30;;;;;;5087800;28;20120;-74
2022/03/17 02:15:01;;;;;;;32.80;16.83;;;6.60;49.80;;;;;;5072726;28;20565;-80
2022/03/17 02:17:30;;;;;;;31.70;17.43;;;6.70;49.80;;;;;;5074515;28;20389;-74
2022/03/17 02:19:59;;;;;;;31.25;17.23;;;6.70;49.60;;;;;;5093525;28;20374;-75
2022/03/17 02:22:31;;;;;;;31.42;17.63;;;6.80;49.70;;;;;;5092881;28;20035;-74
2022/03/17 02:30:48;;;;;;;36.33;18.98;;;6.90;50.20;;;;;;5092918;28;20044;-74
2022/03/17 02:33:16;;;;;;;37.95;19.92;;;6.80;50.20;;;;;;5077638;28;20094;-80
2022/03/17 02:35:44;;;;;;;38.13;20.92;;;6.90;49.70;;;;;;5092661;28;20032;-75
2022/03/17 02:40:55;;;;;;;35.95;18.27;;;6.80;50.10;;;;;;5072243;28;20101;-74
2022/03/17 02:43:27;;;;;;;31.20;17.05;;;6.80;50.60;;;;;;5095780;28;20131;-80
2022/03/17 02:45:59;;;;;;;29.10;16.30;;;6.80;50.80;;;;;;5092421;28;20028;-80
2022/03/17 02:48:25;;;;;;;33.78;18.13;;;6.90;51.00;;;;;;5091981;28;20435;-81
2022/03/17 02:50:51;;;;;;;32.80;16.92;;;6.90;50.90;;;;;;5093645;28;20078;-80
2022/03/17 02:53:18;;;;;;;34.13;18.45;;;6.90;51.80;;;;;;5093126;28;20431;-74
2022/03/17 02:55:44;;;;;;;33.72;17.60;;;6.90;50.70;;;;;;5091599;28;20032;-80
2022/03/17 02:58:22;;;;;;;32.33;17.70;;;6.80;50.90;;;;;;5091767;28;20043;-80
2022/03/17 03:00:51;;;;;;;37.50;19.15;;;6.80;51.50;;;;;;5091977;28;20032;-81
2022/03/17 03:03:17;;;;;;;31.48;18.02;;;6.80;51.40;;;;;;5092320;28;20047;-80
2022/03/17 03:05:48;;;;;;;37.72;18.73;;;6.80;51.40;;;;;;5091766;28;20044;-80
2022/03/17 03:08:18;;;;;;;33.20;18.10;;;6.80;51.50;;;;;;5072217;28;20032;-74
2022/03/17 03:10:44;;;;;;;38.10;20.25;;;6.80;51.60;;;;;;5071457;28;20052;-81
2022/03/17 03:13:15;;;;;;;34.83;20.30;;;6.80;51.70;;;;;;5075967;28;20032;-76
2022/03/17 03:15:46;;;;;;;38.08;19.58;;;6.80;51.70;;;;;;5064849;28;20040;-74
2022/03/17 03:18:13;;;;;;;31.88;18.02;;;6.80;52.00;;;;;;5073683;28;20043;-80
2022/03/17 03:20:42;;;;;;;36.60;20.05;;;6.80;51.40;;;;;;5054836;28;20040;-77
2022/03/17 03:23:19;;;;;;;35.33;19.77;;;6.80;52.20;;;;;;5073396;28;20074;-80
2022/03/17 03:25:45;;;;;;;34.65;18.73;;;6.80;51.90;;;;;;5077016;28;20504;-74
2022/03/17 03:28:39;;;;;;;31.42;16.17;;;6.80;51.80;;;;;;5091097;28;20503;-81
2022/03/17 03:31:23;;;;;;;28.33;16.60;;;6.80;52.10;;;;;;5089200;28;20515;-80
2022/03/17 03:33:53;;;;;;;29.33;14.95;;;6.70;52.50;;;;;;5092446;28;20036;-80
2022/03/17 03:39:17;;;;;;;27.97;15.13;;;6.60;52.50;;;;;;5092192;28;20152;-74
2022/03/17 03:41:54;;;;;;;;;;;;;;;;;;;;;
2022/03/17 03:44:38;;;;;;;28.15;14.40;;;6.70;52.50;;;;;;5085807;28;20036;-74
2022/03/17 03:47:08;;;;;;;27.98;15.68;;;6.70;52.50;;;;;;5056445;28;20387;-74
2022/03/17 03:49:39;;;;;;;30.83;16.40;;;6.70;52.60;;;;;;5072092;28;20033;-74
2022/03/17 03:52:14;;;;;;;27.73;15.43;;;6.70;52.60;;;;;;5071525;28;20465;-80
2022/03/17 03:54:42;;;;;;;24.90;14.68;;;6.80;52.50;;;;;;5089244;28;20127;-74
2022/03/17 03:57:08;;;;;;;28.52;15.82;;;6.80;52.30;;;;;;5091414;28;20408;-74
2022/03/17 03:59:35;;;;;;;31.27;17.52;;;6.80;51.90;;;;;;5079977;28;20443;-80
2022/03/17 04:02:05;;;;;;;31.15;17.50;;;6.80;52.40;;;;;;5071403;28;20532;-80
2022/03/17 04:04:34;;;;;;;28.55;16.67;;;6.70;52.50;;;;;;5073514;28;20040;-74
2022/03/17 04:10:13;;;;;;;30.98;17.17;;;6.70;52.80;;;;;;5092304;28;20413;-80
2022/03/17 04:12:43;;;;;;;28.13;15.48;;;6.60;52.60;;;;;;5083016;28;20041;-74
2022/03/17 04:15:12;;;;;;;27.23;14.65;;;6.50;52.50;;;;;;5086892;28;20616;-76
2022/03/17 04:17:38;;;;;;;27.85;13.55;;;6.50;53.30;;;;;;5091792;28;20028;-74
2022/03/17 04:20:05;;;;;;;23.67;14.32;;;6.40;53.40;;;;;;5091256;28;20028;-76
2022/03/17 04:22:32;;;;;;;28.40;14.73;;;6.30;53.40;;;;;;5088646;28;20032;-81
2022/03/17 04:24:58;;;;;;;28.02;14.38;;;6.30;53.40;;;;;;5071399;28;20033;-75
2022/03/17 04:27:24;;;;;;;24.45;13.32;;;6.30;53.60;;;;;;5074329;28;20112;-78
2022/03/17 04:29:50;;;;;;;47.90;31.45;;;6.20;53.60;;;;;;5086411;28;20055;-81
2022/03/17 04:32:25;;;;;;;42.45;27.20;;;6.10;53.80;;;;;;5094343;28;20089;-74
2022/03/17 04:35:10;;;;;;;31.27;19.38;;;5.90;54.20;;;;;;5095438;28;20040;-74
2022/03/17 04:37:37;;;;;;;32.70;18.80;;;5.80;54.30;;;;;;5096887;28;20028;-75
2022/03/17 04:40:05;;;;;;;;;;;5.70;54.40;;;;;;5078536;28;20028;-81
2022/03/17 04:42:33;;;;;;;30.90;16.25;;;5.60;53.80;;;;;;5076966;28;19916;-74
2022/03/17 04:45:10;;;;;;;31.67;17.35;;;5.50;54.20;;;;;;5094101;28;20467;-76
2022/03/17 04:47:40;;;;;;;27.92;16.83;;;5.60;54.40;;;;;;5095242;28;20039;-75
2022/03/17 04:50:12;;;;;;;32.45;17.15;;;5.50;54.40;;;;;;5090992;28;20032;-81
2022/03/17 04:55:28;;;;;;;31.50;16.27;;;5.40;54.60;;;;;;5074501;28;20055;-74
2022/03/17 04:57:54;;;;;;;32.40;17.80;;;5.30;54.60;;;;;;5075967;28;20044;-81
2022/03/17 05:00:22;;;;;;;39.28;17.92;;;5.30;54.60;;;;;;5085134;28;20039;-81
2022/03/17 05:02:48;;;;;;;31.95;17.02;;;5.20;54.40;;;;;;5074518;28;20094;-81
2022/03/17 05:05:14;;;;;;;32.67;17.65;;;5.20;54.60;;;;;;5074458;28;20036;-75
2022/03/17 05:07:43;;;;;;;36.75;17.90;;;5.10;54.60;;;;;;5074715;28;20385;-82
2022/03/17 05:10:12;;;;;;;34.30;17.83;;;5.10;54.60;;;;;;5085434;28;20063;-80
2022/03/17 05:15:51;;;;;;;43.58;21.98;;;5.10;54.60;;;;;;5060351;28;20040;-81
2022/03/17 05:18:24;;;;;;;47.30;23.90;;;5.10;54.40;;;;;;5040037;28;20033;-74
2022/03/17 05:20:50;;;;;;;49.78;25.52;;;5.10;54.30;;;;;;5072012;28;20079;-74
2022/03/17 05:23:19;;;;;;;57.47;29.00;;;5.10;54.20;;;;;;5073011;28;20068;-74
2022/03/17 05:25:48;;;;;;;59.55;27.13;;;5.10;54.30;;;;;;5055870;28;20051;-74
2022/03/17 05:28:18;;;;;;;66.97;30.48;;;5.10;54.20;;;;;;5055796;28;20141;-81
2022/03/17 05:30:48;;;;;;;83.90;36.55;;;5.10;54.20;;;;;;5040059;28;20641;-80
2022/03/17 05:33:14;;;;;;;79.72;34.08;;;5.10;54.10;;;;;;5052866;28;20118;-81
2022/03/17 05:35:46;;;;;;;127.47;47.03;;;5.10;54.10;;;;;;5052252;28;20040;-80
2022/03/17 05:38:15;;;;;;;89.13;36.05;;;5.20;53.90;;;;;;5051408;28;20048;-81
2022/03/17 05:40:43;;;;;;;65.93;27.27;;;5.20;53.90;;;;;;5069805;28;20078;-80
2022/03/17 05:43:13;;;;;;;49.55;24.95;;;5.20;54.00;;;;;;5073301;28;20045;-81
2022/03/17 05:45:48;;;;;;;52.22;23.02;;;5.20;54.10;;;;;;5085933;28;20481;-74
2022/03/17 05:48:17;;;;;;;70.55;29.40;;;5.20;54.10;;;;;;5085651;28;20028;-74
2022/03/17 05:50:50;;;;;;;58.83;25.75;;;5.30;53.90;;;;;;5073297;28;20040;-81
2022/03/17 05:53:19;;;;;;;46.70;25.25;;;5.40;53.80;;;;;;5075141;28;20032;-75
2022/03/17 05:55:45;;;;;;;51.17;23.63;;;5.40;53.70;;;;;;5073542;28;20493;-75
2022/03/17 05:58:14;;;;;;;51.03;26.65;;;5.50;53.70;;;;;;5060659;28;20468;-74
2022/03/17 06:00:41;;;;;;;52.72;29.98;;;5.60;53.50;;;;;;5092155;28;20044;-81
2022/03/17 06:03:18;;;;;;;72.05;36.85;;;5.70;53.40;;;;;;5095321;28;20032;-74
2022/03/17 06:05:45;;;;;;;69.15;36.63;;;5.70;53.40;;;;;;5076028;28;20047;-75
2022/03/17 06:08:11;;;;;;;99.82;44.53;;;5.80;53.40;;;;;;5093086;28;20062;-81
2022/03/17 06:10:38;;;;;;;88.15;43.97;;;5.90;53.30;;;;;;5109838;28;20393;-80
2022/03/17 06:13:07;;;;;;;87.07;44.13;;;5.90;53.30;;;;;;5093739;28;20130;-74
2022/03/17 06:18:25;;;;;;;37.92;19.33;;;6.00;53.40;;;;;;5084078;28;20044;-80
2022/03/17 06:20:55;;;;;;;35.92;18.50;;;6.00;53.60;;;;;;5073762;28;20043;-74
2022/03/17 06:23:21;;;;;;;39.67;20.63;;;6.10;53.60;;;;;;5073215;28;20032;-80
2022/03/17 06:25:51;;;;;;;40.17;21.50;;;6.10;53.30;;;;;;5073750;28;20138;-81
2022/03/17 06:28:18;;;;;;;37.47;20.60;;;6.20;53.30;;;;;;5093910;28;20043;-74
2022/03/17 06:30:45;;;;;;;54.25;27.80;;;6.30;53.50;;;;;;5092814;28;20487;-81
2022/03/17 06:33:13;;;;;;;64.28;33.22;;;6.40;52.80;;;;;;5093341;28;20105;-81
2022/03/17 06:35:45;;;;;;;68.43;31.55;;;6.50;53.30;;;;;;5092884;28;20040;-74
2022/03/17 06:38:11;;;;;;;59.92;30.67;;;6.60;53.20;;;;;;5091237;28;20028;-74
2022/03/17 06:40:48;;;;;;;;;;;6.70;53.30;;;;;;5077942;28;20079;-81
2022/03/17 06:43:26;;;;;;;73.78;36.75;;;6.80;52.90;;;;;;5094537;28;19980;-74
2022/03/17 06:45:53;;;;;;;74.65;39.03;;;6.90;53.10;;;;;;5090517;28;20040;-74
2022/03/17 06:48:40;;;;;;;59.38;33.88;;;7.00;52.70;;;;;;5093144;28;20036;-74
2022/03/17 06:51:21;;;;;;;58.42;32.05;;;7.20;52.60;;;;;;5092103;28;20442;-74
2022/03/17 06:53:57;;;;;;;62.80;30.10;;;7.30;52.70;;;;;;5075820;28;20054;-81
2022/03/17 06:56:26;;;;;;;50.17;24.73;;;7.50;52.80;;;;;;5079499;28;20082;-81
2022/03/17 06:58:52;;;;;;;41.03;22.58;;;7.60;52.80;;;;;;5055861;28;20127;-74
2022/03/17 07:01:18;;;;;;;39.30;21.95;;;7.70;52.70;;;;;;5067412;28;20028;-81
2022/03/17 07:03:47;;;;;;;35.72;20.00;;;7.90;52.70;;;;;;5092980;28;20037;-74
2022/03/17 07:06:14;;;;;;;41.22;20.58;;;8.10;52.50;;;;;;5092116;28;20119;-74
2022/03/17 07:08:44;;;;;;;34.00;19.98;;;8.30;52.50;;;;;;5092255;28;20382;-81
2022/03/17 07:11:13;;;;;;;42.17;21.85;;;8.40;52.40;;;;;;5092145;28;20043;-74
2022/03/17 07:13:42;;;;;;;38.63;21.90;;;8.60;52.50;;;;;;5093266;28;20037;-81
2022/03/17 07:16:09;;;;;;;42.80;22.80;;;8.80;52.30;;;;;;5082876;28;20034;-74
2022/03/17 07:18:55;;;;;;;38.47;21.75;;;9.00;52.10;;;;;;5092396;28;20082;-75
2022/03/17 07:21:25;;;;;;;41.05;22.42;;;9.10;51.90;;;;;;5089304;28;20048;-81
2022/03/17 07:23:52;;;;;;;42.08;23.10;;;9.30;51.80;;;;;;5091944;28;20036;-80
2022/03/17 07:26:19;;;;;;;48.92;25.13;;;9.50;51.50;;;;;;5074817;28;20111;-75
2022/03/17 07:28:58;;;;;;;47.65;24.42;;;9.60;51.30;;;;;;5092342;28;20042;-81
2022/03/17 07:31:28;;;;;;;42.40;23.40;;;9.80;50.80;;;;;;5090678;28;20044;-75
2022/03/17 07:33:54;;;;;;;40.47;21.95;;;10.00;51.00;;;;;;5086666;28;20051;-75
2022/03/17 07:36:24;;;;;;;;;;;10.10;50.10;;;;;;5092296;28;20024;-75
2022/03/17 07:38:51;;;;;;;39.90;21.58;;;10.30;50.40;;;;;;5075475;28;19916;-75
2022/03/17 07:41:18;;;;;;;38.33;22.48;;;10.50;50.20;;;;;;5091403;28;20028;-75
2022/03/17 07:43:46;;;;;;;42.35;20.67;;;10.60;50.00;;;;;;5074655;28;20047;-82
2022/03/17 07:46:14;;;;;;;40.20;22.80;;;10.80;49.70;;;;;;5080023;28;20068;-82
2022/03/17 07:48:41;;;;;;;40.08;22.08;;;10.90;49.20;;;;;;5092118;28;20122;-82
2022/03/17 07:51:12;;;;;;;39.88;21.95;;;11.20;48.50;;;;;;5074799;28;20025;-75
2022/03/17 07:53:46;;;;;;;40.70;22.70;;;11.40;48.50;;;;;;5091150;28;20092;-75
2022/03/17 07:56:16;;;;;;;40.60;22.58;;;11.60;48.20;;;;;;5092603;28;20024;-75
2022/03/17 07:58:45;;;;;;;40.47;22.38;;;11.80;47.80;;;;;;5082702;28;20215;-83
2022/03/17 08:01:11;;;;;;;43.90;22.50;;;12.10;47.20;;;;;;5070802;28;20047;-75
2022/03/17 08:03:42;;;;;;;49.92;23.75;;;12.30;47.40;;;;;;5058624;28;20090;-82
2022/03/17 08:06:13;;;;;;;42.60;23.10;;;12.40;46.90;;;;;;5075284;28;20041;-75
2022/03/17 08:09:02;;;;;;;40.90;22.73;;;12.70;46.90;;;;;;5077646;28;20097;-75
2022/03/17 08:11:29;;;;;;;41.90;24.10;;;12.80;46.60;;;;;;5053299;28;20048;-83
2022/03/17 08:13:55;;;;;;;46.33;24.58;;;13.10;46.00;;;;;;5020347;28;20053;-75
2022/03/17 08:16:22;;;;;;;43.58;24.70;;;13.20;45.60;;;;;;5043227;28;20037;-75
2022/03/17 08:18:49;;;;;;;41.17;22.73;;;13.40;45.60;;;;;;5055023;28;20091;-75
2022/03/17 08:21:18;;;;;;;39.35;21.23;;;13.90;45.00;;;;;;5054999;28;20551;-75
2022/03/17 08:23:45;;;;;;;42.80;21.92;;;14.50;43.90;;;;;;5041948;28;20445;-84
2022/03/17 08:26:39;;;;;;;37.38;22.08;;;15.10;42.20;;;;;;5034980;28;20490;-84
2022/03/17 08:29:05;;;;;;;36.90;19.70;;;15.40;42.00;;;;;;5035284;28;20049;-84
2022/03/17 08:31:36;;;;;;;38.10;20.63;;;15.60;41.20;;;;;;5038867;28;20031;-84
2022/03/17 08:34:02;;;;;;;36.10;19.77;;;15.90;40.90;;;;;;5055502;28;20032;-76
2022/03/17 08:36:28;;;;;;;31.63;19.00;;;16.20;39.50;;;;;;5055781;28;20029;-84
2022/03/17 08:39:16;;;;;;;33.05;20.05;;;16.60;39.60;;;;;;5055518;28;20494;-76
2022/03/17 08:41:58;;;;;;;32.17;19.50;;;17.10;38.70;;;;;;5068803;28;20144;-85
2022/03/17 08:44:34;;;;;;;29.50;17.52;;;17.50;37.80;;;;;;5036356;28;20064;-77
2022/03/17 08:49:51;;;;;;;31.63;18.00;;;18.40;36.10;;;;;;5055689;28;20051;-77
2022/03/17 08:52:19;;;;;;;32.83;17.05;;;19.10;34.40;;;;;;5051002;28;20045;-76
2022/03/17 08:54:46;;;;;;;28.73;18.45;;;19.40;34.40;;;;;;5051557;28;20045;-85
2022/03/17 08:57:13;;;;;;;31.13;18.55;;;19.60;33.20;;;;;;5034245;28;20360;-76
2022/03/17 08:59:46;;;;;;;29.10;16.55;;;20.00;33.10;;;;;;5034711;28;20061;-76
2022/03/17 09:02:15;;;;;;;25.13;15.30;;;20.70;31.40;;;;;;5053988;28;20034;-76
2022/03/17 09:04:44;;;;;;;24.50;16.25;;;21.00;30.90;;;;;;5046108;28;20051;-76
2022/03/17 09:07:40;;;;;;;28.20;16.58;;;21.40;30.00;;;;;;5039457;28;20025;-84
2022/03/17 09:10:06;;;;;;;23.38;14.95;;;22.40;29.50;;;;;;5032127;28;20147;-83
2022/03/17 09:12:33;;;;;;;21.85;14.65;;;22.70;28.10;;;;;;5033182;28;20080;-84
2022/03/17 09:15:00;;;;;;;24.42;14.63;;;22.70;27.40;;;;;;5033447;28;20437;-84
2022/03/17 09:17:28;;;;;;;27.50;15.93;;;22.80;26.90;;;;;;5044008;28;20115;-83
2022/03/17 09:19:58;;;;;;;26.20;17.05;;;23.20;26.50;;;;;;5053144;28;20042;-84
2022/03/17 09:22:24;;;;;;;30.23;16.65;;;23.80;26.00;;;;;;5036043;28;20060;-76
2022/03/17 09:24:50;;;;;;;;;;;24.60;25.60;;;;;;5051347;28;20119;-78
2022/03/17 09:27:16;;;;;;;30.50;19.55;;;24.80;26.80;;;;;;5032449;28;20340;-77
2022/03/17 09:29:46;;;;;;;29.42;18.67;;;25.20;24.40;;;;;;5000026;28;20118;-76
2022/03/17 09:32:14;;;;;;;31.17;19.35;;;25.40;23.50;;;;;;5015623;28;20064;-76
2022/03/17 09:34:41;;;;;;;29.50;18.23;;;25.20;23.30;;;;;;5016506;28;20034;-77
2022/03/17 09:37:19;;;;;;;27.95;18.52;;;24.20;23.90;;;;;;5020724;28;20041;-85
2022/03/17 09:39:50;;;;;;;25.77;18.65;;;24.80;23.60;;;;;;5034174;28;20052;-76
2022/03/17 09:42:30;;;;;;;29.27;20.27;;;25.70;22.50;;;;;;5017995;28;20120;-84
2022/03/17 09:45:03;;;;;;;35.78;20.50;;;26.00;22.30;;;;;;5045346;28;20049;-76
2022/03/17 09:47:36;;;;;;;29.33;18.45;;;26.60;21.30;;;;;;5052534;28;20036;-76
2022/03/17 09:50:09;;;;;;;30.80;19.15;;;26.50;21.30;;;;;;5037226;28;20071;-76
2022/03/17 09:53:01;;;;;;;27.67;17.52;;;26.80;20.80;;;;;;5053719;28;20446;-76
2022/03/17 09:55:30;;;;;;;25.58;17.90;;;26.60;21.00;;;;;;5045965;28;20090;-85
2022/03/17 09:57:57;;;;;;;23.95;16.25;;;26.60;20.80;;;;;;5050391;28;20037;-85
2022/03/17 10:03:34;;;;;;;;;;;27.20;20.50;;;;;;5054790;28;20095;-77
2022/03/17 10:06:06;;;;;;;25.65;15.90;;;28.20;20.90;;;;;;5053126;28;20345;-82
2022/03/17 10:11:40;;;;;;;21.35;15.73;;;28.90;18.60;;;;;;5092179;28;20135;-84
2022/03/17 10:14:12;;;;;;;19.75;13.90;;;29.60;18.30;;;;;;5086916;28;20063;-76
2022/03/17 10:16:39;;;;;;;19.63;14.32;;;29.70;17.20;;;;;;5074155;28;20527;-84
2022/03/17 10:19:08;;;;;;;21.27;14.82;;;29.90;17.10;;;;;;5076462;28;20043;-83
2022/03/17 10:21:36;;;;;;;22.95;14.77;;;30.40;17.10;;;;;;5093140;28;20020;-85
2022/03/17 10:24:07;;;;;;;22.35;14.52;;;30.90;16.40;;;;;;5076757;28;20029;-85
2022/03/17 10:26:54;;;;;;;24.00;14.45;;;30.30;16.60;;;;;;5089040;28;20071;-77
2022/03/17 10:29:25;;;;;;;23.63;16.10;;;29.90;16.90;;;;;;5072831;28;20033;-84
2022/03/17 10:32:15;;;;;;;20.13;15.05;;;30.20;16.40;;;;;;5092162;28;20036;-77
2022/03/17 10:35:08;;;;;;;19.30;13.95;;;29.80;16.50;;;;;;5093482;28;20044;-77
2022/03/17 10:37:46;;;;;;;23.40;14.57;;;29.90;16.60;;;;;;5094229;28;20060;-76
2022/03/17 10:40:32;;;;;;;23.15;15.57;;;30.10;16.60;;;;;;5093394;28;20473;-76
2022/03/17 10:43:23;;;;;;;19.48;14.32;;;31.00;16.20;;;;;;5076566;28;20040;-76
2022/03/17 10:46:22;;;;;;;20.13;14.52;;;32.20;15.50;;;;;;5093631;28;20028;-77
2022/03/17 10:49:14;;;;;;;21.58;14.48;;;32.80;14.60;;;;;;5091812;28;20032;-85
2022/03/17 10:51:43;;;;;;;18.60;14.20;;;32.50;14.10;;;;;;5092363;28;20036;-84
2022/03/17 10:54:20;;;;;;;20.05;14.73;;;32.20;14.60;;;;;;5091983;28;20035;-84
2022/03/17 10:57:23;;;;;;;18.83;14.45;;;31.40;14.90;;;;;;5092228;28;20036;-76
2022/03/17 11:00:20;;;;;;;24.90;13.38;;;31.20;15.40;;;;;;5092433;28;20032;-76
2022/03/17 11:02:49;;;;;;;17.70;12.88;;;31.00;14.90;;;;;;5091860;28;20046;-84
2022/03/17 11:05:20;;;;;;;18.52;13.77;;;31.30;14.90;;;;;;5075113;28;20032;-76
2022/03/17 11:07:59;;;;;;;22.73;16.63;;;31.60;14.50;;;;;;5092595;28;20036;-77
2022/03/17 11:10:26;;;;;;;19.42;13.65;;;31.60;14.10;;;;;;5091768;28;20071;-84
2022/03/17 11:12:53;;;;;;;24.42;14.90;;;31.40;14.30;;;;;;5076859;28;20032;-83
2022/03/17 11:15:42;;;;;;;19.65;13.75;;;31.20;14.90;;;;;;5055073;28;20033;-84
2022/03/17 11:18:32;;;;;;;18.20;13.30;;;30.80;14.80;;;;;;5082527;28;20448;-76
2022/03/17 11:21:21;;;;;;;16.77;12.70;;;30.80;14.80;;;;;;5092294;28;20043;-84
2022/03/17 11:24:06;;;;;;;20.55;14.43;;;30.40;14.80;;;;;;5093254;28;20036;-84
2022/03/17 11:27:06;;;;;;;18.45;12.95;;;30.80;14.50;;;;;;5091456;28;20020;-76
2022/03/17 11:29:56;;;;;;;17.38;11.77;;;31.00;15.00;;;;;;5092125;28;20250;-85
2022/03/17 11:33:02;;;;;;;20.95;12.75;;;30.60;14.50;;;;;;5090964;28;20036;-83
2022/03/17 11:36:11;;;;;;;24.50;15.27;;;30.20;15.10;;;;;;5091396;28;20136;-77
2022/03/17 11:38:41;;;;;;;18.13;12.82;;;30.40;14.80;;;;;;5091859;28;20079;-76
2022/03/17 11:41:30;;;;;;;16.42;12.02;;;30.60;14.00;;;;;;5091416;28;20060;-83
2022/03/17 11:44:10;;;;;;;17.52;12.20;;;30.40;13.90;;;;;;5076543;28;20038;-83
2022/03/17 11:46:58;;;;;;;19.42;13.57;;;30.00;14.60;;;;;;5092740;28;20036;-77
2022/03/17 11:49:28;;;;;;;16.98;12.32;;;29.70;14.70;;;;;;5090957;28;20143;-82
2022/03/17 11:52:29;;;;;;;18.88;12.80;;;30.00;14.30;;;;;;5091544;28;20039;-83
2022/03/17 11:55:35;;;;;;;15.65;10.25;;;30.20;14.10;;;;;;5076982;28;20123;-83
2022/03/17 12:01:47;;;;;;;19.33;10.40;;;30.70;13.30;;;;;;5092427;28;20043;-76
2022/03/17 12:04:35;;;;;;;17.77;10.90;;;30.60;13.40;;;;;;5090611;28;20043;-77
2022/03/17 12:07:22;;;;;;;13.52;9.63;;;31.40;12.90;;;;;;5091223;28;20040;-75
2022/03/17 12:09:50;;;;;;;16.27;11.50;;;32.50;12.60;;;;;;5091377;28;20082;-77
2022/03/17 12:13:19;;;;;;;16.55;10.70;;;32.90;12.00;;;;;;5074124;28;20039;-83
2022/03/17 12:19:35;;;;;;;12.23;8.60;;;33.40;11.10;;;;;;5091178;28;20448;-83
2022/03/17 12:22:20;;;;;;;13.93;9.27;;;34.20;11.80;;;;;;5092594;28;20039;-76
2022/03/17 12:25:15;;;;;;;14.60;10.27;;;34.60;11.20;;;;;;5092766;28;20036;-83
2022/03/17 12:27:43;;;;;;;16.00;10.75;;;34.80;11.20;;;;;;5091420;28;20400;-76
2022/03/17 12:30:34;;;;;;;13.30;10.00;;;35.40;10.90;;;;;;5074060;28;20127;-76
2022/03/17 12:33:16;;;;;;;18.70;11.52;;;36.60;10.40;;;;;;5090786;28;20040;-82
2022/03/17 12:36:01;;;;;;;13.90;9.05;;;37.50;9.80;;;;;;5092087;28;20036;-83
2022/03/17 12:38:29;;;;;;;13.10;9.35;;;37.80;9.60;;;;;;5089340;28;20036;-77
2022/03/17 12:40:56;;;;;;;16.17;8.93;;;36.80;8.80;;;;;;5090657;28;20048;-84
2022/03/17 12:43:37;;;;;;;13.77;10.25;;;35.70;9.90;;;;;;5091536;28;20111;-77
2022/03/17 12:46:05;;;;;;;12.82;8.98;;;36.50;10.30;;;;;;5090962;28;20029;-84
2022/03/17 12:48:34;;;;;;;14.18;9.85;;;36.70;9.20;;;;;;5092207;28;20120;-77
2022/03/17 12:51:18;;;;;;;12.13;8.57;;;35.90;9.50;;;;;;5094754;28;20040;-84
2022/03/17 12:53:47;;;;;;;12.90;8.68;;;35.30;10.40;;;;;;5095057;28;20044;-74
2022/03/17 12:56:16;;;;;;;12.20;7.97;;;34.90;10.50;;;;;;5094339;28;20063;-82
2022/03/17 12:58:58;;;;;;;12.27;8.90;;;34.20;9.60;;;;;;5078230;28;20085;-83
2022/03/17 13:01:28;;;;;;;12.35;8.88;;;32.80;10.60;;;;;;5078804;28;20365;-83
2022/03/17 13:04:06;;;;;;;15.23;9.48;;;33.40;10.80;;;;;;5093991;28;20028;-84
2022/03/17 13:09:18;;;;;;;15.90;8.40;;;33.50;11.10;;;;;;5094527;28;20039;-84
2022/03/17 13:14:34;;;;;;;12.57;8.55;;;33.10;10.70;;;;;;5080769;28;20058;-84
2022/03/17 13:17:09;;;;;;;16.05;9.65;;;32.80;11.30;;;;;;5094242;28;20020;-85
2022/03/17 13:20:01;;;;;;;15.68;9.05;;;32.70;10.80;;;;;;5094813;28;20089;-83
2022/03/17 13:22:34;;;;;;;13.32;8.75;;;32.60;11.30;;;;;;5093759;28;20048;-83
2022/03/17 13:25:02;;;;;;;13.77;8.98;;;32.40;11.70;;;;;;5095629;28;20034;-83
2022/03/17 13:27:47;;;;;;;12.82;8.98;;;32.50;11.50;;;;;;5077093;28;20431;-76
2022/03/17 13:30:17;;;;;;;17.55;10.90;;;31.70;12.00;;;;;;5093771;28;20063;-76
2022/03/17 13:33:18;;;;;;;16.67;9.60;;;31.50;12.00;;;;;;5094362;28;20028;-77
2022/03/17 13:36:06;;;;;;;14.25;9.35;;;31.80;11.70;;;;;;5094878;28;20044;-80
2022/03/17 13:38:41;;;;;;;15.05;9.50;;;31.60;11.30;;;;;;5077797;28;20039;-77
2022/03/17 13:41:55;;;;;;;15.25;9.63;;;31.30;11.60;;;;;;5060854;28;20039;-77
2022/03/17 13:45:01;;;;;;;14.15;9.43;;;30.10;12.50;;;;;;5077479;28;20501;-84
2022/03/17 13:47:31;;;;;;;11.82;9.45;;;29.70;12.90;;;;;;5095089;28;20032;-84
2022/03/17 13:53:38;;;;;;;19.77;12.15;;;29.60;12.70;;;;;;5095602;28;20043;-76
2022/03/17 13:56:26;;;;;;;15.95;11.38;;;29.40;13.10;;;;;;5077001;28;20036;-84
2022/03/17 13:58:58;;;;;;;17.02;10.65;;;29.10;13.00;;;;;;5093235;28;20547;-76
2022/03/17 14:01:25;;;;;;;22.38;12.27;;;28.90;12.90;;;;;;5093107;28;20380;-83
2022/03/17 14:04:19;;;;;;;30.02;13.82;;;29.20;13.40;;;;;;5093041;28;20032;-76